Time;durP1;ratioP1;P1;durP2;ratioP2;P2;SDS_P1;SDS_P2;PMS_P1;PMS_P2;Temp;Humidity;BMP_temperature;BMP_pressure;BME280_temperature;BME280_humidity;BME280_pressure;Samples;Min_cycle;Max_cycle;Signal;HPM_P1;HPM_P2
2022/09/04 00:02:38;;;;;;;4.20;2.63;;;;;;;13.19;100.00;100537.94;5032738;28;20033;-52
2022/09/04 00:05:21;;;;;;;4.10;2.20;;;;;;;13.16;100.00;100531.19;5029048;28;20071;-51
2022/09/04 00:08:03;;;;;;;3.38;2.55;;;;;;;13.10;100.00;100529.34;5039723;28;20033;-56
2022/09/04 00:10:50;;;;;;;3.55;2.85;;;;;;;13.06;100.00;100534.28;5044598;28;20067;-55
2022/09/04 00:13:21;;;;;;;3.05;2.40;;;;;;;13.07;100.00;100540.41;5030340;28;20148;-56
2022/09/04 00:15:54;;;;;;;;;;;;;;;13.08;100.00;100534.88;5044957;28;20041;-54
2022/09/04 00:18:25;;;;;;;6.68;2.80;;;;;;;13.09;100.00;100535.72;5035741;28;19917;-56
2022/09/04 00:21:05;;;;;;;5.43;2.90;;;;;;;13.12;100.00;100537.97;5032527;28;20083;-51
2022/09/04 00:23:42;;;;;;;4.10;2.28;;;;;;;13.18;100.00;100536.31;5037991;28;20124;-54
2022/09/04 00:26:16;;;;;;;3.40;2.47;;;;;;;13.25;100.00;100539.78;5031520;28;20033;-53
2022/09/04 00:28:48;;;;;;;8.07;2.75;;;;;;;13.26;100.00;100538.75;5035742;28;20041;-52
2022/09/04 00:31:47;;;;;;;2.92;2.67;;;;;;;13.22;100.00;100538.34;5039346;28;20144;-51
2022/09/04 00:34:17;;;;;;;3.65;2.53;;;;;;;13.19;100.00;100541.44;5029023;28;20121;-53
2022/09/04 00:36:46;;;;;;;5.25;3.17;;;;;;;13.22;100.00;100551.66;5029874;28;20040;-52
2022/09/04 00:39:18;;;;;;;6.25;3.40;;;;;;;13.23;100.00;100547.97;5048471;28;20447;-55
2022/09/04 00:42:07;;;;;;;6.60;2.75;;;;;;;13.22;100.00;100554.34;5031028;28;20083;-54
2022/09/04 00:45:03;;;;;;;2.85;2.60;;;;;;;13.22;100.00;100556.19;5029002;28;20037;-53
2022/09/04 00:47:47;;;;;;;5.25;3.03;;;;;;;13.25;100.00;100558.44;5040844;28;20037;-52
2022/09/04 00:50:34;;;;;;;5.05;3.42;;;;;;;13.29;100.00;100557.00;5035056;28;20025;-53
2022/09/04 00:53:08;;;;;;;12.45;4.43;;;;;;;13.36;100.00;100560.47;5030410;28;20088;-53
2022/09/04 00:56:21;;;;;;;7.60;3.78;;;;;;;13.52;100.00;100565.34;5037857;28;20056;-55
2022/09/04 00:58:59;;;;;;;5.28;3.47;;;;;;;13.62;100.00;100558.78;5039387;28;20426;-53
2022/09/04 01:01:27;;;;;;;8.05;3.72;;;;;;;13.66;100.00;100558.19;5035637;28;20033;-55
2022/09/04 01:04:16;;;;;;;5.97;4.10;;;;;;;13.72;100.00;100557.31;5041379;28;20551;-53
2022/09/04 01:06:48;;;;;;;7.13;3.75;;;;;;;13.77;100.00;100561.22;5038302;28;20073;-53
2022/09/04 01:09:45;;;;;;;12.65;3.65;;;;;;;13.84;100.00;100557.50;5033875;28;20069;-50
2022/09/04 01:12:36;;;;;;;5.10;3.67;;;;;;;13.83;100.00;100557.69;5037765;28;20149;-51
2022/09/04 01:15:17;;;;;;;4.33;3.67;;;;;;;13.81;100.00;100560.59;5038335;28;20520;-53
2022/09/04 01:18:18;;;;;;;6.88;3.63;;;;;;;13.82;100.00;100554.22;5030700;28;20301;-55
2022/09/04 01:21:09;;;;;;;7.00;5.00;;;;;;;13.85;100.00;100560.97;5032641;28;20071;-53
2022/09/04 01:23:49;;;;;;;7.57;4.43;;;;;;;13.84;100.00;100554.03;5039834;28;20036;-53
2022/09/04 01:26:31;;;;;;;5.40;4.13;;;;;;;13.85;100.00;100553.78;5040858;28;20071;-54
2022/09/04 01:29:40;;;;;;;6.85;4.63;;;;;;;13.82;100.00;100548.91;5030075;28;20029;-54
2022/09/04 01:32:30;;;;;;;7.85;4.85;;;;;;;13.91;100.00;100555.63;5041546;28;20048;-54
2022/09/04 01:35:11;;;;;;;9.77;5.43;;;;;;;13.98;100.00;100554.78;5029431;28;20136;-54
2022/09/04 01:38:01;;;;;;;11.45;5.25;;;;;;;14.02;100.00;100556.81;5026011;28;20049;-53
2022/09/04 01:40:56;;;;;;;9.45;5.93;;;;;;;14.12;100.00;100559.84;5036735;28;20530;-52
2022/09/04 01:43:23;;;;;;;8.52;6.70;;;;;;;14.23;100.00;100557.56;5033864;28;20014;-52
2022/09/04 01:45:54;;;;;;;8.88;6.25;;;;;;;14.23;100.00;100550.38;5029259;28;20025;-55
2022/09/04 01:48:50;;;;;;;9.77;7.68;;;;;;;14.28;100.00;100558.53;5037802;28;20464;-50
2022/09/04 01:51:53;;;;;;;10.52;7.00;;;;;;;14.29;100.00;100554.03;5039357;28;20342;-54
2022/09/04 01:54:47;;;;;;;9.10;6.57;;;;;;;14.30;100.00;100553.81;5036240;28;20036;-56
2022/09/04 01:57:28;;;;;;;10.90;6.43;;;;;;;14.30;100.00;100551.16;5037415;28;20047;-51
2022/09/04 02:00:11;;;;;;;12.20;5.88;;;;;;;14.30;100.00;100558.31;5031258;28;20063;-56
2022/09/04 02:03:01;;;;;;;13.32;7.55;;;;;;;14.33;100.00;100560.56;5042165;28;20021;-55
2022/09/04 02:05:55;;;;;;;10.48;7.47;;;;;;;14.34;100.00;100560.34;5029772;28;20498;-54
2022/09/04 02:08:26;;;;;;;9.65;7.03;;;;;;;14.36;100.00;100560.94;5034844;28;20084;-53
2022/09/04 02:11:11;;;;;;;9.30;6.78;;;;;;;14.42;100.00;100548.59;5030981;28;20036;-51
2022/09/04 02:13:46;;;;;;;16.88;8.85;;;;;;;14.54;100.00;100556.78;5029862;28;20419;-52
2022/09/04 02:16:13;;;;;;;14.98;7.80;;;;;;;14.57;100.00;100554.50;5036050;28;20116;-56
2022/09/04 02:19:02;;;;;;;12.02;8.15;;;;;;;14.66;100.00;100559.56;5032545;28;20040;-53
2022/09/04 02:21:43;;;;;;;9.45;7.00;;;;;;;14.70;100.00;100563.44;5035278;28;20068;-51
2022/09/04 02:24:17;;;;;;;13.80;9.10;;;;;;;14.77;100.00;100566.91;5032559;28;20037;-51
2022/09/04 02:27:01;;;;;;;13.30;7.90;;;;;;;14.77;100.00;100573.03;5039303;28;20376;-54
2022/09/04 02:29:45;;;;;;;14.95;9.70;;;;;;;14.81;100.00;100578.75;5029321;28;21670;-54
2022/09/04 02:32:24;;;;;;;12.65;8.02;;;;;;;14.82;100.00;100578.56;5041968;28;20041;-53
2022/09/04 02:35:20;;;;;;;13.98;9.23;;;;;;;14.88;100.00;100576.84;5035160;28;20120;-56
2022/09/04 02:38:10;;;;;;;12.80;8.90;;;;;;;14.91;100.00;100573.75;5034451;28;20041;-51
2022/09/04 02:40:47;;;;;;;14.50;9.57;;;;;;;14.92;100.00;100574.56;5033098;28;20033;-55
2022/09/04 02:44:05;;;;;;;14.20;10.45;;;;;;;14.97;100.00;100578.25;5038340;28;20036;-54
2022/09/04 02:46:52;;;;;;;13.13;9.40;;;;;;;15.01;100.00;100578.63;5036424;28;20029;-51
2022/09/04 02:49:28;;;;;;;15.20;9.63;;;;;;;14.98;100.00;100571.84;5027883;28;20044;-51
2022/09/04 02:52:00;;;;;;;17.88;10.50;;;;;;;14.91;100.00;100573.75;5039726;28;20127;-55
2022/09/04 02:55:03;;;;;;;15.65;9.93;;;;;;;14.94;100.00;100583.19;5029349;28;20025;-56
2022/09/04 02:57:43;;;;;;;20.60;11.52;;;;;;;14.95;100.00;100574.97;5036198;28;20033;-56
2022/09/04 03:00:18;;;;;;;12.68;9.75;;;;;;;14.91;100.00;100579.09;5042168;28;20068;-54
2022/09/04 03:03:08;;;;;;;14.45;7.78;;;;;;;14.88;100.00;100574.19;5044962;28;20028;-53
2022/09/04 03:06:14;;;;;;;14.73;9.45;;;;;;;14.89;100.00;100573.16;5031839;28;20492;-56
2022/09/04 03:08:59;;;;;;;14.63;10.35;;;;;;;14.87;100.00;100572.56;5029960;28;20589;-54
2022/09/04 03:11:34;;;;;;;13.80;10.43;;;;;;;14.87;100.00;100572.56;5038299;28;20568;-55
2022/09/04 03:14:09;;;;;;;13.45;9.60;;;;;;;14.85;100.00;100574.63;5042360;28;20040;-54
2022/09/04 03:17:13;;;;;;;19.65;10.48;;;;;;;14.79;100.00;100573.66;5047133;28;20071;-54
2022/09/04 03:19:56;;;;;;;13.45;9.27;;;;;;;14.71;100.00;100571.22;5038490;28;20041;-56
2022/09/04 03:22:32;;;;;;;17.88;11.27;;;;;;;14.67;100.00;100575.38;5046427;28;20107;-55
2022/09/04 03:25:04;;;;;;;18.55;11.40;;;;;;;14.72;100.00;100575.53;5036764;28;20029;-56
2022/09/04 03:27:31;;;;;;;;;;;;;;;14.77;100.00;100578.38;5046527;28;20025;-51
2022/09/04 03:30:11;;;;;;;19.65;12.18;;;;;;;14.75;100.00;100571.63;5040689;28;19923;-51
2022/09/04 03:33:16;;;;;;;22.10;12.38;;;;;;;14.69;100.00;100581.31;5039085;28;20053;-51
2022/09/04 03:35:48;;;;;;;17.23;12.68;;;;;;;14.65;100.00;100577.44;5043938;28;20404;-54
2022/09/04 03:38:27;;;;;;;22.52;12.13;;;;;;;14.66;100.00;100575.56;5039572;28;20171;-56
2022/09/04 03:40:56;;;;;;;17.05;12.52;;;;;;;14.70;100.00;100579.47;5038241;28;20393;-50
2022/09/04 03:43:40;;;;;;;20.30;11.98;;;;;;;14.70;100.00;100582.13;5042227;28;20032;-54
2022/09/04 03:46:40;;;;;;;17.23;12.50;;;;;;;14.68;100.00;100581.53;5031542;28;20036;-54
2022/09/04 03:49:21;;;;;;;14.05;10.43;;;;;;;14.72;100.00;100585.41;5038270;28;20083;-53
2022/09/04 03:52:06;;;;;;;16.42;11.63;;;;;;;14.71;100.00;100581.09;5031129;28;20538;-56
2022/09/04 03:54:44;;;;;;;21.27;13.30;;;;;;;14.72;100.00;100582.75;5034406;28;20136;-50
2022/09/04 03:57:35;;;;;;;21.35;11.75;;;;;;;14.76;100.00;100581.25;5034821;28;20033;-55
2022/09/04 04:00:09;;;;;;;39.95;11.95;;;;;;;14.76;100.00;100590.06;5026223;28;20044;-50
2022/09/04 04:02:35;;;;;;;17.15;11.20;;;;;;;14.73;100.00;100590.50;5048860;28;20051;-56
2022/09/04 04:05:22;;;;;;;16.17;11.93;;;;;;;14.72;100.00;100590.75;5046115;28;20033;-57
2022/09/04 04:07:57;;;;;;;18.08;13.18;;;;;;;14.73;100.00;100593.19;5037855;28;21547;-53
2022/09/04 04:10:32;;;;;;;19.75;12.48;;;;;;;14.78;100.00;100603.22;5045998;28;20034;-53
2022/09/04 04:13:23;;;;;;;17.27;12.27;;;;;;;14.79;100.00;100604.84;5035624;28;20049;-52
2022/09/04 04:16:10;;;;;;;16.48;10.85;;;;;;;14.76;100.00;100608.75;5041541;28;20025;-55
2022/09/04 04:18:46;;;;;;;15.02;10.85;;;;;;;14.78;100.00;100605.88;5039865;28;20037;-52
2022/09/04 04:21:20;;;;;;;17.90;10.88;;;;;;;14.81;100.00;100600.09;5039942;28;20083;-56
2022/09/04 04:23:57;;;;;;;18.65;12.85;;;;;;;14.89;100.00;100601.69;5045230;28;20036;-51
2022/09/04 04:26:39;;;;;;;22.98;13.77;;;;;;;14.84;100.00;100599.66;5030897;28;20506;-53
2022/09/04 04:29:19;;;;;;;15.23;11.40;;;;;;;14.76;100.00;100600.75;5031254;28;20557;-52
2022/09/04 04:32:15;;;;;;;18.08;13.65;;;;;;;14.72;100.00;100607.56;5036094;28;20029;-50
2022/09/04 04:35:03;;;;;;;15.25;11.27;;;;;;;14.80;100.00;100609.16;5039917;28;20029;-54
2022/09/04 04:37:31;;;;;;;19.48;11.25;;;;;;;14.79;100.00;100610.19;5039706;28;20027;-56
2022/09/04 04:40:26;;;;;;;21.98;13.10;;;;;;;14.75;100.00;100611.66;5036019;28;20060;-51
2022/09/04 04:43:18;;;;;;;21.83;12.88;;;;;;;14.73;100.00;100614.53;5034736;28;20045;-49
2022/09/04 04:45:58;;;;;;;16.10;12.38;;;;;;;14.76;100.00;100611.44;5031850;28;20033;-53
2022/09/04 04:48:35;;;;;;;18.83;13.38;;;;;;;14.73;100.00;100611.03;5032648;28;20482;-55
2022/09/04 04:51:13;;;;;;;14.50;11.55;;;;;;;14.70;100.00;100606.16;5040151;28;20064;-55
2022/09/04 04:53:44;;;;;;;22.38;13.27;;;;;;;14.74;100.00;100607.34;5039770;28;20036;-55
2022/09/04 04:56:34;;;;;;;18.60;13.20;;;;;;;14.71;100.00;100613.09;5036196;28;20127;-56
2022/09/04 04:59:22;;;;;;;14.90;11.38;;;;;;;14.75;100.00;100617.00;5034191;28;20064;-54
2022/09/04 05:02:06;;;;;;;16.67;11.30;;;;;;;14.74;100.00;100612.66;5030506;28;20032;-56
2022/09/04 05:04:49;;;;;;;19.08;10.52;;;;;;;14.75;100.00;100623.16;5031606;28;20072;-51
2022/09/04 05:07:21;;;;;;;14.88;11.32;;;;;;;14.78;100.00;100621.91;5039946;28;20048;-53
2022/09/04 05:09:59;;;;;;;15.40;10.45;;;;;;;14.77;100.00;100625.63;5033077;28;20124;-57
2022/09/04 05:12:36;;;;;;;20.48;11.27;;;;;;;14.78;100.00;100628.06;5036651;28;20568;-52
2022/09/04 05:15:21;;;;;;;16.38;11.30;;;;;;;14.86;100.00;100634.97;5033935;28;20041;-50
2022/09/04 05:17:53;;;;;;;15.93;11.40;;;;;;;14.90;100.00;100630.06;5036269;28;20033;-55
2022/09/04 05:20:40;;;;;;;13.05;9.80;;;;;;;14.87;100.00;100628.63;5037270;28;20061;-57
2022/09/04 05:23:11;;;;;;;15.57;9.07;;;;;;;14.95;100.00;100638.22;5028813;28;20113;-56
2022/09/04 05:25:52;;;;;;;17.90;10.35;;;;;;;15.03;100.00;100638.78;5028053;28;20064;-54
2022/09/04 05:28:42;;;;;;;15.98;11.02;;;;;;;15.07;100.00;100635.66;5038494;28;20124;-56
2022/09/04 05:31:19;;;;;;;17.63;11.88;;;;;;;15.11;100.00;100642.22;5041657;28;20108;-55
2022/09/04 05:33:59;;;;;;;14.80;10.00;;;;;;;15.15;100.00;100654.09;5026181;28;20433;-54
2022/09/04 05:36:45;;;;;;;17.60;10.00;;;;;;;15.17;100.00;100660.84;5033095;28;20501;-56
2022/09/04 05:39:25;;;;;;;14.63;8.68;;;;;;;15.16;100.00;100656.56;5030242;28;20037;-56
2022/09/04 05:41:53;;;;;;;16.38;10.65;;;;;;;15.16;100.00;100661.09;5038240;28;20041;-53
2022/09/04 05:44:41;;;;;;;13.68;8.77;;;;;;;15.16;100.00;100663.75;5037111;28;20112;-56
2022/09/04 05:47:29;;;;;;;11.27;8.82;;;;;;;15.27;100.00;100668.38;5031423;28;20036;-53
2022/09/04 05:50:15;;;;;;;14.20;8.45;;;;;;;15.29;100.00;100670.84;5037285;28;20047;-55
2022/09/04 05:52:58;;;;;;;14.68;8.77;;;;;;;15.31;100.00;100668.75;5036603;28;20073;-56
2022/09/04 05:55:42;;;;;;;14.25;9.20;;;;;;;15.34;100.00;100673.69;5034151;28;20104;-56
2022/09/04 05:58:32;;;;;;;11.93;8.45;;;;;;;15.40;100.00;100670.13;5037705;28;20029;-53
2022/09/04 06:01:15;;;;;;;11.70;7.15;;;;;;;15.44;100.00;100674.03;5033736;28;20135;-56
2022/09/04 06:04:02;;;;;;;9.82;6.53;;;;;;;15.45;100.00;100673.78;5030631;28;20457;-57
2022/09/04 06:06:46;;;;;;;6.53;5.93;;;;;;;15.47;100.00;100679.72;5034008;28;20025;-56
2022/09/04 06:09:34;;;;;;;8.70;5.13;;;;;;;15.47;100.00;100685.06;5030944;28;20111;-53
2022/09/04 06:12:08;;;;;;;7.78;5.63;;;;;;;15.46;100.00;100680.78;5038175;28;20092;-51
2022/09/04 06:15:04;;;;;;;6.22;4.70;;;;;;;15.47;100.00;100676.25;5033290;28;20021;-52
2022/09/04 06:17:42;;;;;;;7.53;4.35;;;;;;;15.47;100.00;100682.41;5038187;28;20041;-57
2022/09/04 06:20:13;;;;;;;10.63;4.05;;;;;;;15.53;100.00;100680.72;5035333;28;20033;-56
2022/09/04 06:22:55;;;;;;;8.07;4.57;;;;;;;15.61;100.00;100682.28;5019060;28;20029;-56
2022/09/04 06:25:36;;;;;;;4.53;3.30;;;;;;;15.64;100.00;100681.84;5036552;28;20041;-57
2022/09/04 06:28:16;;;;;;;8.45;3.30;;;;;;;15.66;100.00;100674.44;5036663;28;20478;-57
2022/09/04 06:30:52;;;;;;;5.22;2.55;;;;;;;15.70;100.00;100667.66;5035805;28;20044;-51
2022/09/04 06:33:39;;;;;;;6.55;3.05;;;;;;;15.74;100.00;100668.03;5035001;28;20064;-56
2022/09/04 06:36:15;;;;;;;3.95;2.08;;;;;;;15.74;100.00;100665.34;5041422;28;20025;-57
2022/09/04 06:39:29;;;;;;;5.18;3.10;;;;;;;15.73;100.00;100661.84;5039752;28;20080;-53
2022/09/04 06:42:04;;;;;;;6.13;2.00;;;;;;;15.77;100.00;100651.53;5035324;28;20087;-56
2022/09/04 06:44:52;;;;;;;3.55;2.75;;;;;;;15.78;100.00;100654.00;5029142;28;20075;-56
2022/09/04 06:47:52;;;;;;;2.15;1.95;;;;;;;15.83;100.00;100653.34;5042187;28;20072;-55
2022/09/04 06:50:50;;;;;;;5.82;1.95;;;;;;;15.85;100.00;100654.75;5033407;28;20112;-52
2022/09/04 06:53:18;;;;;;;2.45;1.83;;;;;;;15.91;100.00;100656.53;5026824;28;20033;-57
2022/09/04 06:56:02;;;;;;;2.95;2.00;;;;;;;16.00;100.00;100645.53;5041453;28;20371;-56
2022/09/04 06:58:52;;;;;;;4.18;1.73;;;;;;;16.09;100.00;100660.25;5042254;28;20029;-58
2022/09/04 07:01:33;;;;;;;3.70;1.45;;;;;;;16.13;100.00;100650.72;5037796;28;20040;-58
2022/09/04 07:04:06;;;;;;;2.33;1.58;;;;;;;16.19;100.00;100649.84;5036181;28;20034;-54
2022/09/04 07:06:37;;;;;;;1.80;1.20;;;;;;;16.25;100.00;100658.84;5034921;28;20033;-54
2022/09/04 07:09:08;;;;;;;4.53;1.50;;;;;;;16.31;100.00;100652.56;5044424;28;20126;-54
2022/09/04 07:11:36;;;;;;;4.75;0.90;;;;;;;16.33;100.00;100650.50;5038438;28;20111;-59
2022/09/04 07:14:26;;;;;;;2.38;2.00;;;;;;;16.36;100.00;100645.50;5039395;28;20032;-57
2022/09/04 07:17:25;;;;;;;2.10;1.05;;;;;;;16.39;100.00;100649.59;5032427;28;20041;-55
2022/09/04 07:19:53;;;;;;;3.55;1.50;;;;;;;16.41;100.00;100652.06;5036916;28;20040;-49
2022/09/04 07:22:52;;;;;;;5.72;1.83;;;;;;;16.46;100.00;100655.69;5039620;28;20103;-57
2022/09/04 07:25:26;;;;;;;2.15;0.50;;;;;;;16.51;100.00;100652.34;5041280;28;20045;-50
2022/09/04 07:28:27;;;;;;;2.33;0.63;;;;;;;16.56;100.00;100652.47;5040017;28;20024;-55
2022/09/04 07:31:02;;;;;;;4.17;0.77;;;;;;;16.62;100.00;100648.06;5036586;28;20024;-56
2022/09/04 07:33:51;;;;;;;4.13;0.95;;;;;;;16.69;100.00;100646.94;5034468;28;20040;-51
2022/09/04 07:36:26;;;;;;;2.08;0.63;;;;;;;16.76;100.00;100654.88;5031166;28;20374;-57
2022/09/04 07:39:09;;;;;;;3.05;1.00;;;;;;;16.82;100.00;100651.31;5036595;28;20032;-56
2022/09/04 07:41:55;;;;;;;4.70;1.33;;;;;;;16.89;100.00;100649.38;5041901;28;20033;-52
2022/09/04 07:44:45;;;;;;;2.95;1.10;;;;;;;16.95;100.00;100658.34;5040565;28;20121;-55
2022/09/04 07:47:20;;;;;;;5.95;1.00;;;;;;;17.03;100.00;100655.34;5037422;28;20077;-55
2022/09/04 07:50:17;;;;;;;6.57;0.60;;;;;;;17.06;100.00;100659.41;5032600;28;20329;-56
2022/09/04 07:52:57;;;;;;;4.80;0.82;;;;;;;17.14;100.00;100651.03;5035623;28;20357;-55
2022/09/04 07:55:45;;;;;;;0.77;0.77;;;;;;;17.19;100.00;100668.09;5033432;28;20750;-56
2022/09/04 07:58:27;;;;;;;2.88;1.27;;;;;;;17.29;100.00;100664.00;5041064;28;20608;-54
2022/09/04 08:01:17;;;;;;;8.25;1.40;;;;;;;17.35;100.00;100666.59;5043534;28;20524;-52
2022/09/04 08:04:09;;;;;;;1.30;0.73;;;;;;;17.44;100.00;100672.41;5041380;28;20073;-53
2022/09/04 08:06:58;;;;;;;6.32;1.38;;;;;;;17.51;100.00;100662.41;5040993;28;20053;-53
2022/09/04 08:09:37;;;;;;;6.15;0.40;;;;;;;17.59;100.00;100672.78;5039710;28;20057;-50
2022/09/04 08:12:29;;;;;;;4.90;0.30;;;;;;;17.71;100.00;100671.97;5023175;28;20589;-57
2022/09/04 08:15:09;;;;;;;4.05;1.50;;;;;;;17.75;100.00;100686.53;5029262;28;20037;-52
2022/09/04 08:18:00;;;;;;;3.30;0.52;;;;;;;17.80;100.00;100686.69;5034137;28;20045;-55
2022/09/04 08:20:43;;;;;;;3.35;0.30;;;;;;;17.85;100.00;100684.13;5042675;28;20068;-57
2022/09/04 08:23:12;;;;;;;6.82;1.65;;;;;;;17.89;100.00;100685.31;5033456;28;20036;-55
2022/09/04 08:26:07;;;;;;;6.60;2.13;;;;;;;17.97;100.00;100684.13;5036772;28;20091;-56
2022/09/04 08:28:55;;;;;;;3.20;0.57;;;;;;;18.03;100.00;100693.91;5037678;28;20029;-57
2022/09/04 08:31:33;;;;;;;7.47;1.45;;;;;;;18.05;100.00;100697.19;5025702;28;20033;-56
2022/09/04 08:34:09;;;;;;;5.20;0.60;;;;;;;18.05;100.00;100697.19;5032159;28;20055;-62
2022/09/04 08:36:47;;;;;;;1.98;1.20;;;;;;;18.15;100.00;100715.34;5024789;28;20498;-58
2022/09/04 08:39:33;;;;;;;5.30;1.48;;;;;;;18.21;100.00;100707.19;5032452;28;20659;-58
2022/09/04 08:42:16;;;;;;;9.27;0.95;;;;;;;18.28;100.00;100712.44;5033716;28;20037;-55
2022/09/04 08:45:14;;;;;;;4.20;0.75;;;;;;;18.41;100.00;100714.03;5033239;28;20573;-57
2022/09/04 08:48:06;;;;;;;3.40;0.43;;;;;;;18.48;100.00;100709.31;5032751;28;20166;-57
2022/09/04 08:50:57;;;;;;;3.45;0.55;;;;;;;18.56;100.00;100711.66;5034058;28;20120;-49
2022/09/04 08:53:40;;;;;;;4.88;1.95;;;;;;;18.68;100.00;100704.38;5044655;28;20429;-57
2022/09/04 08:56:30;;;;;;;5.80;1.77;;;;;;;18.86;100.00;100710.63;5031789;28;20044;-57
2022/09/04 08:59:20;;;;;;;8.68;1.27;;;;;;;18.88;100.00;100705.84;5036322;28;20102;-57
2022/09/04 09:01:45;;;;;;;4.07;0.55;;;;;;;18.89;100.00;100710.16;5042379;28;20486;-54
2022/09/04 09:04:46;;;;;;;4.38;0.85;;;;;;;18.90;100.00;100715.31;5036682;28;20036;-52
2022/09/04 09:07:42;;;;;;;2.63;0.50;;;;;;;18.90;100.00;100717.97;5034474;28;20037;-58
2022/09/04 09:10:18;;;;;;;1.42;0.47;;;;;;;18.95;100.00;100726.13;5031864;28;20033;-55
2022/09/04 09:13:11;;;;;;;5.18;0.77;;;;;;;18.89;100.00;100713.66;5037884;28;20128;-52
2022/09/04 09:16:15;;;;;;;0.88;0.30;;;;;;;18.93;100.00;100728.25;5037851;28;20045;-54
2022/09/04 09:19:09;;;;;;;3.85;1.20;;;;;;;18.96;100.00;100721.56;5031071;28;20394;-58
2022/09/04 09:21:48;;;;;;;4.65;1.35;;;;;;;19.03;100.00;100729.50;5033092;28;20032;-58
2022/09/04 09:24:43;;;;;;;6.22;1.50;;;;;;;19.11;100.00;100721.84;5032975;28;20029;-55
2022/09/04 09:27:44;;;;;;;2.47;0.80;;;;;;;19.36;100.00;100721.50;5039268;28;20037;-54
2022/09/04 09:30:19;;;;;;;1.83;0.68;;;;;;;19.57;100.00;100721.81;5028583;28;20134;-58
2022/09/04 09:33:19;;;;;;;4.00;1.08;;;;;;;19.75;100.00;100713.53;5033769;28;20513;-49
2022/09/04 09:36:22;;;;;;;3.50;0.52;;;;;;;19.91;100.00;100719.13;5042743;28;20439;-58
2022/09/04 09:39:06;;;;;;;5.10;1.65;;;;;;;19.94;100.00;100710.56;5031535;28;20032;-56
2022/09/04 09:41:58;;;;;;;1.90;0.82;;;;;;;20.01;100.00;100713.91;5041471;28;20069;-52
2022/09/04 09:44:32;;;;;;;;;;;;;;;20.14;100.00;100720.81;5040357;28;20033;-56
2022/09/04 09:47:16;;;;;;;3.97;1.00;;;;;;;20.21;100.00;100721.41;5044484;28;19964;-56
2022/09/04 09:50:00;;;;;;;1.42;0.30;;;;;;;20.25;100.00;100723.38;5040859;28;20124;-51
2022/09/04 09:52:51;;;;;;;7.80;0.75;;;;;;;20.22;100.00;100715.78;5038990;28;20107;-59
2022/09/04 09:55:35;;;;;;;6.38;1.10;;;;;;;20.27;100.00;100715.06;5037995;28;20087;-51
2022/09/04 09:58:18;;;;;;;4.22;1.30;;;;;;;20.40;100.00;100719.25;5034135;28;20044;-54
2022/09/04 10:01:03;;;;;;;3.72;0.40;;;;;;;20.53;100.00;100729.66;5031464;28;20048;-56
2022/09/04 10:03:37;;;;;;;6.95;1.05;;;;;;;20.50;100.00;100730.16;5037331;28;20072;-55
2022/09/04 10:06:12;;;;;;;4.50;0.75;;;;;;;20.46;100.00;100724.44;5032393;28;20045;-54
2022/09/04 10:08:58;;;;;;;3.78;0.30;;;;;;;20.67;100.00;100716.63;5034033;28;20029;-54
2022/09/04 10:11:55;;;;;;;5.30;1.15;;;;;;;20.63;100.00;100710.94;5019623;28;20557;-55
2022/09/04 10:14:58;;;;;;;5.68;1.00;;;;;;;20.68;100.00;100712.88;5028400;28;20359;-61
2022/09/04 10:17:53;;;;;;;3.65;0.77;;;;;;;20.95;100.00;100722.88;5017940;28;20037;-52
2022/09/04 10:20:54;;;;;;;7.65;1.23;;;;;;;20.92;100.00;100710.72;5034818;28;20577;-51
2022/09/04 10:23:41;;;;;;;2.33;1.10;;;;;;;20.92;100.00;100722.28;5033708;28;20450;-54
2022/09/04 10:26:34;;;;;;;5.25;0.50;;;;;;;20.83;100.00;100723.84;5043165;28;20045;-57
2022/09/04 10:29:15;;;;;;;5.25;1.58;;;;;;;20.71;100.00;100719.66;5039255;28;20082;-52
2022/09/04 10:32:09;;;;;;;5.95;0.32;;;;;;;20.60;100.00;100727.63;5030094;28;20032;-56
2022/09/04 10:35:08;;;;;;;2.35;0.98;;;;;;;20.77;100.00;100718.63;5039272;28;20040;-57
2022/09/04 10:37:56;;;;;;;1.65;0.30;;;;;;;20.96;100.00;100721.78;5043441;28;20029;-55
2022/09/04 10:40:34;;;;;;;3.10;1.10;;;;;;;20.86;100.00;100725.22;5036393;28;20561;-53
2022/09/04 10:43:21;;;;;;;5.78;0.68;;;;;;;20.99;100.00;100723.97;5030072;28;20049;-50
2022/09/04 10:45:56;;;;;;;1.75;0.95;;;;;;;20.94;100.00;100730.13;5028584;28;20036;-53
2022/09/04 10:48:59;;;;;;;3.17;0.20;;;;;;;21.12;100.00;100721.69;5036561;28;20469;-58
2022/09/04 10:51:42;;;;;;;4.07;0.90;;;;;;;21.26;100.00;100722.06;5044407;28;20128;-58
2022/09/04 10:54:34;;;;;;;8.10;1.65;;;;;;;21.19;100.00;100726.06;5035133;28;20041;-57
2022/09/04 10:57:24;;;;;;;4.03;0.73;;;;;;;20.98;100.00;100738.53;5032684;28;20412;-58
2022/09/04 11:00:37;;;;;;;4.28;0.82;;;;;;;20.69;100.00;100734.16;5028817;28;20368;-59
2022/09/04 11:03:43;;;;;;;5.15;1.45;;;;;;;20.55;100.00;100737.50;5014156;28;20351;-57
2022/09/04 11:06:48;;;;;;;6.43;0.80;;;;;;;20.49;100.00;100734.69;5030254;28;20024;-63
2022/09/04 11:09:13;;;;;;;4.43;1.08;;;;;;;20.60;100.00;100743.78;5038522;28;20156;-52
2022/09/04 11:11:57;;;;;;;6.88;1.00;;;;;;;21.02;100.00;100740.47;5038183;28;20065;-56
2022/09/04 11:15:02;;;;;;;3.30;0.57;;;;;;;21.47;100.00;100731.19;5036821;28;20362;-58
2022/09/04 11:17:45;;;;;;;3.88;0.45;;;;;;;21.66;100.00;100733.47;5032102;28;20041;-55
2022/09/04 11:20:22;;;;;;;1.55;0.20;;;;;;;21.46;100.00;100742.25;5031891;28;20045;-54
2022/09/04 11:23:14;;;;;;;6.25;0.40;;;;;;;21.24;100.00;100735.00;5034870;28;20029;-53
2022/09/04 11:25:43;;;;;;;;;;;;;;;21.13;100.00;100744.88;5035481;28;20368;-55
2022/09/04 11:28:14;;;;;;;1.92;0.40;;;;;;;21.50;100.00;100730.69;5039120;28;19928;-55
2022/09/04 11:30:54;;;;;;;;;;;;;;;21.88;100.00;100750.38;5033140;28;20037;-53
2022/09/04 11:33:51;;;;;;;5.22;0.80;;;;;;;22.00;100.00;100748.31;5042825;28;20362;-59
2022/09/04 11:37:03;;;;;;;5.80;0.60;;;;;;;22.03;100.00;100740.75;5044975;28;20513;-53
2022/09/04 11:39:43;;;;;;;6.38;1.27;;;;;;;22.08;100.00;100746.19;5038016;28;20128;-58
2022/09/04 11:42:16;;;;;;;5.03;0.70;;;;;;;22.17;100.00;100740.00;5037497;28;20112;-59
2022/09/04 11:45:02;;;;;;;4.93;1.08;;;;;;;22.28;100.00;100751.75;5037959;28;20055;-62
2022/09/04 11:47:49;;;;;;;2.58;0.30;;;;;;;22.40;100.00;100752.31;5043217;28;20025;-60
2022/09/04 11:50:26;;;;;;;4.75;2.22;;;;;;;22.32;100.00;100754.72;5042062;28;20036;-57
2022/09/04 11:53:36;;;;;;;4.60;1.45;;;;;;;21.84;100.00;100748.44;5043268;28;20021;-57
2022/09/04 11:56:13;;;;;;;8.60;0.50;;;;;;;21.49;100.00;100756.03;5019309;28;20049;-58
2022/09/04 11:58:54;;;;;;;4.50;1.00;;;;;;;21.24;100.00;100767.34;5040347;28;20079;-60
2022/09/04 12:01:41;;;;;;;5.03;0.63;;;;;;;21.01;100.00;100776.56;5037779;28;20119;-58
2022/09/04 12:04:27;;;;;;;11.65;1.08;;;;;;;20.70;100.00;100772.69;5045528;28;21020;-52
2022/09/04 12:07:24;;;;;;;7.40;0.85;;;;;;;20.62;100.00;100779.34;5034478;28;20108;-55
2022/09/04 12:10:18;;;;;;;9.63;0.70;;;;;;;20.67;100.00;100790.19;5041808;28;20247;-51
2022/09/04 12:13:15;;;;;;;7.03;0.85;;;;;;;20.87;100.00;100780.72;5043813;28;20037;-57
2022/09/04 12:16:10;;;;;;;0.82;0.25;;;;;;;21.06;100.00;100782.00;5043909;28;20021;-59
2022/09/04 12:19:06;;;;;;;6.43;0.60;;;;;;;21.24;100.00;100780.84;5045611;28;20688;-59
2022/09/04 12:21:34;;;;;;;6.22;0.55;;;;;;;21.59;100.00;100779.59;5042325;28;20025;-53
2022/09/04 12:24:09;;;;;;;3.10;1.63;;;;;;;21.85;100.00;100788.69;5041910;28;20745;-56
2022/09/04 12:27:20;;;;;;;4.88;0.77;;;;;;;21.67;100.00;100779.09;5038017;28;20025;-53
2022/09/04 12:30:01;;;;;;;4.13;0.50;;;;;;;21.47;100.00;100792.41;5041109;28;20497;-52
2022/09/04 12:32:47;;;;;;;2.00;1.17;;;;;;;21.37;100.00;100789.59;5041160;28;20502;-53
2022/09/04 12:35:16;;;;;;;7.00;2.05;;;;;;;21.49;100.00;100784.88;5026570;28;20029;-53